Port Columbus International Airport
KCMH : rendu visible

Aérodrome :











RETROUVEZ-NOUS SUR...

 
LOGIN :

S'inscrire | Disclaimer

   EN    FR    IT 

 









Légende :    VFR   VFR Marginal   IFR   IFR Intensif   IFR Très Intensif
Visi : 
Plafond : 
>= 8 km
>= 3000ft
5 à 8 km
1000 à 3000 ft
1500m à 5 km
500 à 1000 ft
800 à 1500m
200 à 500 ft
< 800m
< 200 ft
Symboles :   Orages  Brouillard  Fortes neiges  Fortes précipitations  Vent > 20 kt






- Altitude de l'aérodrome : 815 ft
- Code IATA : CMH


KCMH - Port Columbus International

DERNIER METAR :
  • 021451Z 04005KT 10SM FEW065 FEW250 29/16 A3003 RMK AO2 SLP162 T02890161 52007

METARs EXPIRÉS :
  • 021351Z 02003KT 10SM FEW250 27/17 A3003 RMK AO2 SLP159 T02720172
  • 021251Z 01004KT 10SM FEW250 24/17 A3002 RMK AO2 SLP158 T02390172

TAF KCMH
Valide du 02 à 12h jusqu'au 03 à 12h UTC


021120Z 0212/0312 04006KT P6SM FEW050
FM030000 VRB03KT P6SM SKC
FIR KZID / Amérique du Nord



MET'MAP, la Météo Aéronautique d'un coup d'oeil ! - Copyright ORBIFLY Décembre 2007 - Disclaimer

ORBIFLY MET'MAP TEAM :

Programmation & Développement : Alexandra Zaïnal
Sur une idée originale de : Baudouin d'Aumeries
Assistance à la programmation : Marc-Olivier Méhu
Soutien technique & logistique : Manuel Goepfert

Contact : metmap@orbifly.com




SOURCES & CREDITS :

   NOAA       Earth
Advisory